Time;durP1;ratioP1;P1;durP2;ratioP2;P2;SDS_P1;SDS_P2;PMS_P1;PMS_P2;Temp;Humidity;BMP_temperature;BMP_pressure;BME280_temperature;BME280_humidity;BME280_pressure;Samples;Min_cycle;Max_cycle;Signal;HPM_P1;HPM_P2
2023/06/25 00:00:09;;;;;;;;;;;;;;;;;;4994539;28;19920;-73
2023/06/25 00:02:56;;;;;;;;;;;;;;;;;;5003628;28;19924;-73
2023/06/25 00:05:42;;;;;;;;;;;;;;;;;;4993554;28;19924;-74
2023/06/25 00:08:29;;;;;;;;;;;;;;;;;;5004723;28;19921;-73
2023/06/25 00:11:15;;;;;;;;;;;;;;;;;;4995526;28;19964;-73
2023/06/25 00:14:02;;;;;;;;;;;;;;;;;;5005312;28;19933;-73
2023/06/25 00:16:48;;;;;;;;;;;;;;;;;;5004825;28;19925;-74
2023/06/25 00:19:35;;;;;;;;;;;;;;;;;;4991061;28;20474;-73
2023/06/25 00:22:21;;;;;;;;;;;;;;;;;;5005442;28;19928;-72
2023/06/25 00:25:08;;;;;;;;;;;;;;;;;;5002849;28;19956;-73
2023/06/25 00:27:57;;;;;;;;;;;;;;;;;;5007595;28;20582;-74
2023/06/25 00:30:44;;;;;;;;;;;;;;;;;;5001032;28;20497;-74
2023/06/25 00:33:32;;;;;;;;;;;;;;;;;;5003063;28;19917;-74
2023/06/25 00:36:18;;;;;;;;;;;;;;;;;;4994689;28;19968;-73
2023/06/25 00:39:05;;;;;;;;;;;;;;;;;;4992144;28;19926;-73
2023/06/25 00:41:51;;;;;;;;;;;;;;;;;;4994762;28;20560;-73
2023/06/25 00:44:40;;;;;;;;;;;;;;;;;;5000057;28;19921;-73
2023/06/25 00:47:27;;;;;;;;;;;;;;;;;;4998398;28;20496;-73
2023/06/25 00:50:13;;;;;;;;;;;;;;;;;;5010035;28;19918;-73
2023/06/25 00:53:01;;;;;;;;;;;;;;;;;;5003628;28;20377;-72
2023/06/25 00:55:50;;;;;;;;;;;;;;;;;;5003320;28;20384;-73
2023/06/25 00:58:38;;;;;;;;;;;;;;;;;;4999553;28;19918;-73
2023/06/25 01:01:26;;;;;;;;;;;;;;;;;;5004253;28;19927;-73
2023/06/25 01:04:12;;;;;;;;;;;;;;;;;;5004858;28;20355;-73
2023/06/25 01:07:00;;;;;;;;;;;;;;;;;;5005393;28;19924;-74
2023/06/25 01:09:47;;;;;;;;;;;;;;;;;;4997447;28;19940;-74
2023/06/25 01:12:35;;;;;;;;;;;;;;;;;;5002864;28;19918;-73
2023/06/25 01:15:22;;;;;;;;;;;;;;;;;;4997318;28;19933;-74
2023/06/25 01:18:14;;;;;;;;;;;;;;;;;;4997180;28;19939;-74
2023/06/25 01:21:00;;;;;;;;;;;;;;;;;;5002866;28;19917;-74
2023/06/25 01:23:46;;;;;;;;;;;;;;;;;;4994326;28;19922;-73
2023/06/25 01:26:34;;;;;;;;;;;;;;;;;;4992717;28;19937;-73
2023/06/25 01:29:20;;;;;;;;;;;;;;;;;;4997636;28;19922;-73
2023/06/25 01:32:07;;;;;;;;;;;;;;;;;;4998892;28;19920;-73
2023/06/25 01:34:53;;;;;;;;;;;;;;;;;;5003490;28;20551;-73
2023/06/25 01:37:40;;;;;;;;;;;;;;;;;;4996782;28;19921;-73
2023/06/25 01:40:26;;;;;;;;;;;;;;;;;;4998503;28;19953;-74
2023/06/25 01:43:13;;;;;;;;;;;;;;;;;;5005004;28;20293;-73
2023/06/25 01:45:59;;;;;;;;;;;;;;;;;;4996677;28;19913;-72
2023/06/25 01:48:46;;;;;;;;;;;;;;;;;;5002116;28;20385;-74
2023/06/25 01:51:32;;;;;;;;;;;;;;;;;;4997229;28;19928;-74
2023/06/25 01:54:18;;;;;;;;;;;;;;;;;;4998425;28;19921;-72
2023/06/25 01:57:05;;;;;;;;;;;;;;;;;;4996581;28;19925;-73
2023/06/25 01:59:51;;;;;;;;;;;;;;;;;;4992882;28;19945;-74
2023/06/25 02:02:38;;;;;;;;;;;;;;;;;;5000965;28;20694;-74
2023/06/25 02:05:24;;;;;;;;;;;;;;;;;;4996469;28;20373;-73
2023/06/25 02:08:11;;;;;;;;;;;;;;;;;;4998748;28;19932;-73
2023/06/25 02:10:57;;;;;;;;;;;;;;;;;;4992158;28;19914;-73
2023/06/25 02:13:44;;;;;;;;;;;;;;;;;;4997826;28;19925;-74
2023/06/25 02:16:30;;;;;;;;;;;;;;;;;;4998639;28;19932;-73
2023/06/25 02:19:17;;;;;;;;;;;;;;;;;;4993915;28;20230;-74
2023/06/25 02:22:03;;;;;;;;;;;;;;;;;;4992622;28;19914;-74
2023/06/25 02:24:50;;;;;;;;;;;;;;;;;;4993650;28;19922;-74
2023/06/25 02:27:36;;;;;;;;;;;;;;;;;;5001371;28;19952;-74
2023/06/25 02:30:23;;;;;;;;;;;;;;;;;;5002685;28;19928;-74
2023/06/25 02:33:09;;;;;;;;;;;;;;;;;;4998927;28;19921;-74
2023/06/25 02:35:56;;;;;;;;;;;;;;;;;;5000646;28;19925;-75
2023/06/25 02:38:42;;;;;;;;;;;;;;;;;;4991949;28;19922;-75
2023/06/25 02:41:29;;;;;;;;;;;;;;;;;;5003644;28;19928;-75
2023/06/25 02:44:16;;;;;;;;;;;;;;;;;;4989045;28;19928;-73
2023/06/25 02:47:02;;;;;;;;;;;;;;;;;;4997422;28;19921;-74
2023/06/25 02:49:48;;;;;;;;;;;;;;;;;;4998373;28;19923;-74
2023/06/25 02:52:35;;;;;;;;;;;;;;;;;;5013323;28;19921;-74
2023/06/25 02:55:21;;;;;;;;;;;;;;;;;;5011599;28;19992;-73
2023/06/25 02:58:08;;;;;;;;;;;;;;;;;;5015447;28;19921;-74
2023/06/25 03:00:54;;;;;;;;;;;;;;;;;;5013036;28;19921;-74
2023/06/25 03:03:41;;;;;;;;;;;;;;;;;;5015773;28;19913;-74
2023/06/25 03:06:27;;;;;;;;;;;;;;;;;;5012180;28;20376;-74
2023/06/25 03:09:14;;;;;;;;;;;;;;;;;;4994125;28;19921;-74
2023/06/25 03:12:00;;;;;;;;;;;;;;;;;;5014057;28;19921;-74
2023/06/25 03:14:47;;;;;;;;;;;;;;;;;;5013540;28;19917;-74
2023/06/25 03:17:33;;;;;;;;;;;;;;;;;;5008589;28;19949;-74
2023/06/25 03:20:20;;;;;;;;;;;;;;;;;;5008279;28;19925;-74
2023/06/25 03:23:07;;;;;;;;;;;;;;;;;;5011985;28;19921;-73
2023/06/25 03:25:53;;;;;;;;;;;;;;;;;;5007539;28;19963;-73
2023/06/25 03:28:39;;;;;;;;;;;;;;;;;;5013820;28;19977;-73
2023/06/25 03:31:26;;;;;;;;;;;;;;;;;;5008421;28;19921;-73
2023/06/25 03:34:12;;;;;;;;;;;;;;;;;;5010866;28;19917;-73
2023/06/25 03:36:59;;;;;;;;;;;;;;;;;;5014018;28;19940;-73
2023/06/25 03:39:46;;;;;;;;;;;;;;;;;;5017053;28;19932;-75
2023/06/25 03:42:32;;;;;;;;;;;;;;;;;;5009618;28;19922;-74
2023/06/25 03:45:18;;;;;;;;;;;;;;;;;;5006060;28;19939;-74
2023/06/25 03:48:05;;;;;;;;;;;;;;;;;;5004951;28;20545;-74
2023/06/25 03:50:52;;;;;;;;;;;;;;;;;;5005507;28;20449;-74
2023/06/25 03:53:38;;;;;;;;;;;;;;;;;;5008659;28;19917;-73
2023/06/25 03:56:25;;;;;;;;;;;;;;;;;;4990484;28;19925;-74
2023/06/25 03:59:11;;;;;;;;;;;;;;;;;;5002800;28;19924;-74
2023/06/25 04:01:58;;;;;;;;;;;;;;;;;;4993991;28;19917;-74
2023/06/25 04:04:44;;;;;;;;;;;;;;;;;;5002214;28;19959;-74
2023/06/25 04:07:31;;;;;;;;;;;;;;;;;;5012736;28;19929;-74
2023/06/25 04:10:17;;;;;;;;;;;;;;;;;;5010395;28;19922;-73
2023/06/25 04:13:04;;;;;;;;;;;;;;;;;;5008187;28;20289;-75
2023/06/25 04:15:50;;;;;;;;;;;;;;;;;;5007634;28;19932;-75
2023/06/25 04:18:40;;;;;;;;;;;;;;;;;;5011519;28;19918;-74
2023/06/25 04:21:26;;;;;;;;;;;;;;;;;;5006316;28;19922;-75
2023/06/25 04:24:13;;;;;;;;;;;;;;;;;;5006253;28;19917;-74
2023/06/25 04:26:59;;;;;;;;;;;;;;;;;;5007094;28;19930;-73
2023/06/25 04:29:46;;;;;;;;;;;;;;;;;;5007638;28;19921;-75
2023/06/25 04:32:32;;;;;;;;;;;;;;;;;;5005386;28;19921;-73
2023/06/25 04:35:19;;;;;;;;;;;;;;;;;;5001783;28;19921;-74
2023/06/25 04:38:05;;;;;;;;;;;;;;;;;;4997203;28;19917;-74
2023/06/25 04:40:52;;;;;;;;;;;;;;;;;;5004685;28;19922;-75
2023/06/25 04:43:38;;;;;;;;;;;;;;;;;;5010379;28;20680;-74
2023/06/25 04:46:25;;;;;;;;;;;;;;;;;;5007541;28;19924;-74
2023/06/25 04:49:11;;;;;;;;;;;;;;;;;;5010104;28;19917;-74
2023/06/25 04:51:58;;;;;;;;;;;;;;;;;;4993547;28;20378;-74
2023/06/25 04:54:44;;;;;;;;;;;;;;;;;;4997973;28;19917;-74
2023/06/25 04:57:31;;;;;;;;;;;;;;;;;;5001991;28;19926;-72
2023/06/25 05:00:17;;;;;;;;;;;;;;;;;;5005105;28;19921;-73
2023/06/25 05:03:04;;;;;;;;;;;;;;;;;;4999637;28;19918;-73
2023/06/25 05:05:50;;;;;;;;;;;;;;;;;;5001362;28;19928;-73
2023/06/25 05:08:37;;;;;;;;;;;;;;;;;;4995292;28;19913;-74
2023/06/25 05:11:23;;;;;;;;;;;;;;;;;;4997470;28;19928;-74
2023/06/25 05:14:10;;;;;;;;;;;;;;;;;;4997166;28;19918;-74
2023/06/25 05:16:56;;;;;;;;;;;;;;;;;;5003092;28;19922;-73
2023/06/25 05:19:43;;;;;;;;;;;;;;;;;;4997403;28;19921;-75
2023/06/25 05:22:29;;;;;;;;;;;;;;;;;;5000197;28;20579;-74
2023/06/25 05:25:16;;;;;;;;;;;;;;;;;;5000370;28;19918;-73
2023/06/25 05:28:02;;;;;;;;;;;;;;;;;;4995258;28;19942;-72
2023/06/25 05:30:49;;;;;;;;;;;;;;;;;;5013501;28;19917;-72
2023/06/25 05:33:35;;;;;;;;;;;;;;;;;;5012099;28;19951;-72
2023/06/25 05:36:22;;;;;;;;;;;;;;;;;;5008064;28;19922;-73
2023/06/25 05:39:08;;;;;;;;;;;;;;;;;;5005390;28;19922;-73
2023/06/25 05:41:55;;;;;;;;;;;;;;;;;;5002346;28;20392;-74
2023/06/25 05:44:41;;;;;;;;;;;;;;;;;;5001103;28;19932;-73
2023/06/25 05:47:27;;;;;;;;;;;;;;;;;;5011932;28;19917;-73
2023/06/25 05:50:14;;;;;;;;;;;;;;;;;;5005784;28;19922;-74
2023/06/25 05:53:00;;;;;;;;;;;;;;;;;;4995831;28;19917;-73
2023/06/25 05:55:47;;;;;;;;;;;;;;;;;;4999425;28;19925;-74
2023/06/25 05:58:33;;;;;;;;;;;;;;;;;;5003282;28;20489;-71
2023/06/25 06:01:21;;;;;;;;;;;;;;;;;;4997020;28;19929;-72
2023/06/25 06:04:08;;;;;;;;;;;;;;;;;;5007646;28;20514;-72
2023/06/25 06:06:54;;;;;;;;;;;;;;;;;;5005551;28;19924;-72
2023/06/25 06:09:41;;;;;;;;;;;;;;;;;;5008576;28;20010;-73
2023/06/25 06:12:27;;;;;;;;;;;;;;;;;;5007323;28;19924;-73
2023/06/25 06:15:15;;;;;;;;;;;;;;;;;;5006428;28;20395;-73
2023/06/25 06:18:02;;;;;;;;;;;;;;;;;;5006187;28;19940;-73
2023/06/25 06:20:49;;;;;;;;;;;;;;;;;;5002101;28;19924;-73
2023/06/25 06:23:35;;;;;;;;;;;;;;;;;;5009130;28;19929;-73
2023/06/25 06:26:22;;;;;;;;;;;;;;;;;;5005034;28;20369;-74
2023/06/25 06:29:08;;;;;;;;;;;;;;;;;;4997754;28;19917;-74
2023/06/25 06:31:55;;;;;;;;;;;;;;;;;;5004729;28;19939;-75
2023/06/25 06:34:41;;;;;;;;;;;;;;;;;;5003072;28;20249;-74
2023/06/25 06:37:28;;;;;;;;;;;;;;;;;;5008757;28;19929;-74
2023/06/25 06:40:14;;;;;;;;;;;;;;;;;;4998740;28;19922;-74
2023/06/25 06:43:01;;;;;;;;;;;;;;;;;;5006003;28;20365;-73
2023/06/25 06:45:47;;;;;;;;;;;;;;;;;;5004551;28;19921;-74
2023/06/25 06:48:34;;;;;;;;;;;;;;;;;;5001667;28;19924;-74
2023/06/25 06:51:20;;;;;;;;;;;;;;;;;;4999431;28;20392;-74
2023/06/25 06:54:07;;;;;;;;;;;;;;;;;;5003939;28;19921;-73
2023/06/25 06:56:53;;;;;;;;;;;;;;;;;;5006719;28;20383;-77
2023/06/25 06:59:40;;;;;;;;;;;;;;;;;;4997942;28;19921;-75
2023/06/25 07:02:26;;;;;;;;;;;;;;;;;;5005985;28;19925;-75
2023/06/25 07:05:13;;;;;;;;;;;;;;;;;;5011289;28;19952;-75
2023/06/25 07:07:59;;;;;;;;;;;;;;;;;;5000701;28;19929;-75
2023/06/25 07:10:46;;;;;;;;;;;;;;;;;;5001485;28;19921;-75
2023/06/25 07:13:32;;;;;;;;;;;;;;;;;;5010689;28;20353;-75
2023/06/25 07:16:19;;;;;;;;;;;;;;;;;;5005669;28;19929;-74
2023/06/25 07:19:05;;;;;;;;;;;;;;;;;;5000402;28;19929;-75
2023/06/25 07:21:52;;;;;;;;;;;;;;;;;;5000047;28;20383;-75
2023/06/25 07:24:38;;;;;;;;;;;;;;;;;;5009616;28;19933;-74
2023/06/25 07:27:25;;;;;;;;;;;;;;;;;;5001708;28;19966;-73
2023/06/25 07:30:11;;;;;;;;;;;;;;;;;;5004796;28;20170;-74
2023/06/25 07:32:58;;;;;;;;;;;;;;;;;;5007989;28;19921;-75
2023/06/25 07:35:44;;;;;;;;;;;;;;;;;;5009976;28;19918;-75
2023/06/25 07:38:31;;;;;;;;;;;;;;;;;;5008658;28;19925;-75
2023/06/25 07:41:17;;;;;;;;;;;;;;;;;;5017893;28;19925;-73
2023/06/25 07:44:04;;;;;;;;;;;;;;;;;;5003740;28;19936;-74
2023/06/25 07:46:50;;;;;;;;;;;;;;;;;;5005208;28;20304;-75
2023/06/25 07:49:37;;;;;;;;;;;;;;;;;;5008624;28;19921;-74
2023/06/25 07:52:23;;;;;;;;;;;;;;;;;;4998863;28;19928;-75
2023/06/25 07:55:10;;;;;;;;;;;;;;;;;;5008125;28;19928;-74
2023/06/25 07:57:56;;;;;;;;;;;;;;;;;;5003810;28;19949;-74
2023/06/25 08:00:43;;;;;;;;;;;;;;;;;;5003863;28;19933;-77
2023/06/25 08:03:29;;;;;;;;;;;;;;;;;;5003858;28;19917;-75
2023/06/25 08:06:15;;;;;;;;;;;;;;;;;;5013426;28;19936;-75
2023/06/25 08:09:03;;;;;;;;;;;;;;;;;;5006203;28;19917;-75
2023/06/25 08:11:49;;;;;;;;;;;;;;;;;;4991138;28;19931;-74
2023/06/25 08:14:36;;;;;;;;;;;;;;;;;;4997305;28;20451;-74
2023/06/25 08:17:22;;;;;;;;;;;;;;;;;;4996055;28;19930;-75
2023/06/25 08:20:08;;;;;;;;;;;;;;;;;;5003575;28;19917;-73
2023/06/25 08:22:55;;;;;;;;;;;;;;;;;;5004320;28;19925;-74
2023/06/25 08:25:42;;;;;;;;;;;;;;;;;;4992164;28;19926;-74
2023/06/25 08:28:28;;;;;;;;;;;;;;;;;;5006905;28;19929;-75
2023/06/25 08:31:15;;;;;;;;;;;;;;;;;;5005254;28;19918;-75
2023/06/25 08:34:01;;;;;;;;;;;;;;;;;;5004760;28;19935;-74
2023/06/25 08:36:47;;;;;;;;;;;;;;;;;;5000696;28;19929;-78
2023/06/25 08:39:34;;;;;;;;;;;;;;;;;;5004209;28;19944;-75
2023/06/25 08:42:20;;;;;;;;;;;;;;;;;;5009505;28;19921;-74
2023/06/25 08:45:07;;;;;;;;;;;;;;;;;;4999910;28;19928;-73
2023/06/25 08:47:53;;;;;;;;;;;;;;;;;;5009466;28;19932;-73
2023/06/25 08:50:40;;;;;;;;;;;;;;;;;;5010198;28;19921;-74
2023/06/25 08:53:26;;;;;;;;;;;;;;;;;;4993270;28;19917;-73
2023/06/25 08:56:13;;;;;;;;;;;;;;;;;;5005213;28;19921;-74
2023/06/25 08:58:59;;;;;;;;;;;;;;;;;;5005629;28;19921;-77
2023/06/25 09:01:46;;;;;;;;;;;;;;;;;;5014483;28;19921;-73
2023/06/25 09:04:32;;;;;;;;;;;;;;;;;;5009877;28;19925;-72
2023/06/25 09:07:19;;;;;;;;;;;;;;;;;;5007435;28;19929;-77
2023/06/25 09:10:06;;;;;;;;;;;;;;;;;;5002928;28;19922;-72
2023/06/25 09:12:52;;;;;;;;;;;;;;;;;;5006367;28;19945;-71
2023/06/25 09:15:39;;;;;;;;;;;;;;;;;;5003316;28;19917;-71
2023/06/25 09:18:25;;;;;;;;;;;;;;;;;;5013188;28;19929;-71
2023/06/25 09:21:11;;;;;;;;;;;;;;;;;;5005297;28;19955;-71
2023/06/25 09:23:58;;;;;;;;;;;;;;;;;;5005132;28;19917;-72
2023/06/25 09:26:44;;;;;;;;;;;;;;;;;;5005781;28;19929;-73
2023/06/25 09:29:31;;;;;;;;;;;;;;;;;;5002919;28;19928;-73
2023/06/25 09:32:17;;;;;;;;;;;;;;;;;;5009491;28;19925;-73
2023/06/25 09:35:04;;;;;;;;;;;;;;;;;;5008530;28;19917;-72
2023/06/25 09:37:51;;;;;;;;;;;;;;;;;;5008957;28;19929;-72
2023/06/25 09:40:37;;;;;;;;;;;;;;;;;;4996254;28;20397;-74
2023/06/25 09:43:24;;;;;;;;;;;;;;;;;;5009500;28;19932;-73
2023/06/25 09:46:10;;;;;;;;;;;;;;;;;;5008488;28;19922;-73
2023/06/25 09:48:57;;;;;;;;;;;;;;;;;;4993781;28;19924;-73
2023/06/25 09:51:43;;;;;;;;;;;;;;;;;;4992018;28;19925;-74
2023/06/25 09:54:30;;;;;;;;;;;;;;;;;;5002158;28;19927;-73
2023/06/25 09:57:16;;;;;;;;;;;;;;;;;;4996696;28;20611;-73
2023/06/25 10:00:04;;;;;;;;;;;;;;;;;;4992058;28;19933;-73
2023/06/25 10:02:52;;;;;;;;;;;;;;;;;;5011770;28;19921;-73
2023/06/25 10:05:38;;;;;;;;;;;;;;;;;;5003907;28;19921;-73
2023/06/25 10:08:25;;;;;;;;;;;;;;;;;;5007765;28;20337;-73
2023/06/25 10:11:11;;;;;;;;;;;;;;;;;;5004490;28;19921;-73
2023/06/25 10:14:01;;;;;;;;;;;;;;;;;;4995380;28;19918;-74
2023/06/25 10:16:48;;;;;;;;;;;;;;;;;;4995193;28;19926;-74
2023/06/25 10:19:34;;;;;;;;;;;;;;;;;;5006323;28;19932;-74
2023/06/25 10:22:21;;;;;;;;;;;;;;;;;;5004877;28;19925;-73
2023/06/25 10:25:07;;;;;;;;;;;;;;;;;;5012252;28;19921;-73
2023/06/25 10:27:53;;;;;;;;;;;;;;;;;;5008054;28;20170;-74
2023/06/25 10:30:40;;;;;;;;;;;;;;;;;;5008346;28;20544;-74
2023/06/25 10:33:26;;;;;;;;;;;;;;;;;;5000306;28;19918;-74
2023/06/25 10:36:13;;;;;;;;;;;;;;;;;;5004456;28;19926;-74
2023/06/25 10:38:59;;;;;;;;;;;;;;;;;;5002940;28;20296;-73
2023/06/25 10:41:46;;;;;;;;;;;;;;;;;;5007194;28;19917;-74
2023/06/25 10:44:33;;;;;;;;;;;;;;;;;;5006240;28;19921;-73
2023/06/25 10:47:19;;;;;;;;;;;;;;;;;;4987255;28;19926;-74
2023/06/25 10:50:06;;;;;;;;;;;;;;;;;;5003094;28;20265;-73
2023/06/25 10:52:52;;;;;;;;;;;;;;;;;;5001559;28;19926;-74
2023/06/25 10:55:39;;;;;;;;;;;;;;;;;;5006490;28;19928;-73
2023/06/25 10:58:25;;;;;;;;;;;;;;;;;;5004935;28;19929;-73
2023/06/25 11:01:12;;;;;;;;;;;;;;;;;;5005373;28;19932;-73
2023/06/25 11:03:58;;;;;;;;;;;;;;;;;;5004546;28;19922;-74
2023/06/25 11:06:45;;;;;;;;;;;;;;;;;;5006040;28;19929;-74
2023/06/25 11:09:31;;;;;;;;;;;;;;;;;;5002349;28;19921;-74
2023/06/25 11:12:18;;;;;;;;;;;;;;;;;;5005679;28;19922;-74
2023/06/25 11:15:04;;;;;;;;;;;;;;;;;;5009704;28;20416;-74
2023/06/25 11:17:52;;;;;;;;;;;;;;;;;;5009515;28;19934;-73
2023/06/25 11:20:38;;;;;;;;;;;;;;;;;;5011130;28;19922;-74
2023/06/25 11:23:25;;;;;;;;;;;;;;;;;;5012605;28;19932;-72
2023/06/25 11:26:12;;;;;;;;;;;;;;;;;;5011646;28;19928;-69
2023/06/25 11:28:58;;;;;;;;;;;;;;;;;;5004126;28;19924;-70
2023/06/25 11:31:48;;;;;;;;;;;;;;;;;;5005989;28;20347;-71
2023/06/25 11:34:34;;;;;;;;;;;;;;;;;;4998185;28;19926;-68
2023/06/25 11:37:22;;;;;;;;;;;;;;;;;;5000333;28;19933;-68
2023/06/25 11:40:09;;;;;;;;;;;;;;;;;;5007358;28;19928;-69
2023/06/25 11:42:55;;;;;;;;;;;;;;;;;;5008793;28;19953;-69
2023/06/25 11:45:42;;;;;;;;;;;;;;;;;;5012278;28;19921;-69
2023/06/25 11:48:29;;;;;;;;;;;;;;;;;;5013496;28;19927;-69
2023/06/25 11:51:15;;;;;;;;;;;;;;;;;;5013454;28;20325;-69
2023/06/25 11:54:02;;;;;;;;;;;;;;;;;;5004593;28;19917;-70
2023/06/25 11:56:48;;;;;;;;;;;;;;;;;;5002886;28;20470;-70
2023/06/25 11:59:36;;;;;;;;;;;;;;;;;;5007609;28;19928;-69
2023/06/25 12:02:22;;;;;;;;;;;;;;;;;;5017381;28;19928;-69
2023/06/25 12:05:09;;;;;;;;;;;;;;;;;;4993641;28;19918;-69
2023/06/25 12:07:55;;;;;;;;;;;;;;;;;;4994103;28;19925;-70
2023/06/25 12:10:42;;;;;;;;;;;;;;;;;;4995549;28;20587;-69
2023/06/25 12:13:28;;;;;;;;;;;;;;;;;;4995989;28;19921;-69
2023/06/25 12:16:15;;;;;;;;;;;;;;;;;;5005522;28;19955;-69
2023/06/25 12:19:03;;;;;;;;;;;;;;;;;;5009387;28;20575;-69
2023/06/25 12:21:50;;;;;;;;;;;;;;;;;;5004795;28;20704;-70
2023/06/25 12:24:38;;;;;;;;;;;;;;;;;;5001542;28;19918;-69
2023/06/25 12:27:24;;;;;;;;;;;;;;;;;;5004044;28;19934;-70
2023/06/25 12:30:10;;;;;;;;;;;;;;;;;;4996792;28;19960;-69
2023/06/25 12:32:57;;;;;;;;;;;;;;;;;;5004524;28;19932;-69
2023/06/25 12:35:43;;;;;;;;;;;;;;;;;;4999975;28;19921;-70
2023/06/25 12:38:30;;;;;;;;;;;;;;;;;;5000027;28;19925;-69
2023/06/25 12:41:17;;;;;;;;;;;;;;;;;;5000404;28;19921;-69
2023/06/25 12:44:03;;;;;;;;;;;;;;;;;;4998422;28;19937;-69
2023/06/25 12:46:50;;;;;;;;;;;;;;;;;;5005161;28;20300;-70
2023/06/25 12:49:36;;;;;;;;;;;;;;;;;;5001383;28;19913;-69
2023/06/25 12:52:23;;;;;;;;;;;;;;;;;;5006414;28;19922;-68
2023/06/25 12:55:09;;;;;;;;;;;;;;;;;;4993237;28;19932;-68
2023/06/25 12:57:56;;;;;;;;;;;;;;;;;;5001957;28;20373;-69
2023/06/25 13:00:42;;;;;;;;;;;;;;;;;;5002327;28;19913;-69
2023/06/25 13:03:29;;;;;;;;;;;;;;;;;;4994294;28;20471;-70
2023/06/25 13:06:15;;;;;;;;;;;;;;;;;;5009826;28;19927;-70
2023/06/25 13:09:02;;;;;;;;;;;;;;;;;;5009933;28;19922;-70
2023/06/25 13:11:48;;;;;;;;;;;;;;;;;;4991690;28;20308;-71
2023/06/25 13:14:35;;;;;;;;;;;;;;;;;;5002281;28;19922;-70
2023/06/25 13:17:21;;;;;;;;;;;;;;;;;;4998923;28;19929;-71
2023/06/25 13:20:08;;;;;;;;;;;;;;;;;;5006263;28;19922;-69
2023/06/25 13:22:54;;;;;;;;;;;;;;;;;;5001544;28;20069;-70
2023/06/25 13:25:41;;;;;;;;;;;;;;;;;;4993547;28;19925;-70
2023/06/25 13:28:28;;;;;;;;;;;;;;;;;;4984556;28;19922;-69
2023/06/25 13:31:14;;;;;;;;;;;;;;;;;;4979087;28;19929;-70
2023/06/25 13:34:00;;;;;;;;;;;;;;;;;;4974546;28;19929;-71
2023/06/25 13:36:47;;;;;;;;;;;;;;;;;;4974066;28;19948;-69
2023/06/25 13:39:33;;;;;;;;;;;;;;;;;;4981991;28;19922;-70
2023/06/25 13:42:20;;;;;;;;;;;;;;;;;;4985334;28;19925;-69
2023/06/25 13:45:06;;;;;;;;;;;;;;;;;;4988759;28;19941;-70
2023/06/25 13:47:53;;;;;;;;;;;;;;;;;;4982130;28;20334;-70
2023/06/25 13:50:39;;;;;;;;;;;;;;;;;;4982971;28;19922;-72
2023/06/25 13:53:26;;;;;;;;;;;;;;;;;;4975849;28;19926;-71
2023/06/25 13:56:13;;;;;;;;;;;;;;;;;;4986158;28;19921;-70
2023/06/25 13:58:59;;;;;;;;;;;;;;;;;;4993574;28;19932;-71
2023/06/25 14:01:46;;;;;;;;;;;;;;;;;;4988811;28;19929;-71
2023/06/25 14:04:32;;;;;;;;;;;;;;;;;;4992186;28;19918;-70
2023/06/25 14:07:18;;;;;;;;;;;;;;;;;;4979207;28;19921;-70
2023/06/25 14:10:05;;;;;;;;;;;;;;;;;;4972910;28;19936;-71
2023/06/25 14:12:52;;;;;;;;;;;;;;;;;;4982234;28;19928;-70
2023/06/25 14:15:38;;;;;;;;;;;;;;;;;;4976136;28;19970;-71
2023/06/25 14:18:25;;;;;;;;;;;;;;;;;;4978867;28;19925;-70
2023/06/25 14:21:11;;;;;;;;;;;;;;;;;;4979009;28;20373;-71
2023/06/25 14:23:58;;;;;;;;;;;;;;;;;;4978282;28;19926;-70
2023/06/25 14:26:44;;;;;;;;;;;;;;;;;;4983163;28;19959;-72
2023/06/25 14:29:31;;;;;;;;;;;;;;;;;;4982214;28;19926;-71
2023/06/25 14:32:18;;;;;;;;;;;;;;;;;;4980592;28;19922;-71
2023/06/25 14:35:04;;;;;;;;;;;;;;;;;;4975732;28;19914;-72
2023/06/25 14:37:51;;;;;;;;;;;;;;;;;;4982522;28;19926;-72
2023/06/25 14:40:37;;;;;;;;;;;;;;;;;;4980795;28;19925;-71
2023/06/25 14:43:23;;;;;;;;;;;;;;;;;;4976580;28;19922;-71
2023/06/25 14:46:10;;;;;;;;;;;;;;;;;;4979350;28;20568;-71
2023/06/25 14:48:56;;;;;;;;;;;;;;;;;;4987702;28;19922;-71
2023/06/25 14:51:43;;;;;;;;;;;;;;;;;;4991895;28;19917;-75
2023/06/25 14:54:29;;;;;;;;;;;;;;;;;;4988034;28;20274;-70
2023/06/25 14:57:16;;;;;;;;;;;;;;;;;;4981159;28;19933;-70
2023/06/25 15:00:03;;;;;;;;;;;;;;;;;;4988042;28;19918;-73
2023/06/25 15:02:49;;;;;;;;;;;;;;;;;;4986249;28;19918;-71
2023/06/25 15:05:36;;;;;;;;;;;;;;;;;;4970141;28;20293;-70
2023/06/25 15:08:22;;;;;;;;;;;;;;;;;;4984313;28;19921;-71
2023/06/25 15:11:09;;;;;;;;;;;;;;;;;;4981824;28;19922;-72
2023/06/25 15:13:57;;;;;;;;;;;;;;;;;;4981260;28;19922;-71
2023/06/25 15:16:44;;;;;;;;;;;;;;;;;;4980812;28;20361;-73
2023/06/25 15:19:30;;;;;;;;;;;;;;;;;;4984726;28;19921;-72
2023/06/25 15:22:17;;;;;;;;;;;;;;;;;;4981530;28;19920;-72
2023/06/25 15:25:04;;;;;;;;;;;;;;;;;;4983863;28;19926;-73
2023/06/25 15:27:50;;;;;;;;;;;;;;;;;;4971956;28;20465;-72
2023/06/25 15:30:36;;;;;;;;;;;;;;;;;;4983093;28;20468;-72
2023/06/25 15:33:23;;;;;;;;;;;;;;;;;;4986490;28;19926;-72
2023/06/25 15:36:10;;;;;;;;;;;;;;;;;;4973875;28;20361;-72
2023/06/25 15:38:56;;;;;;;;;;;;;;;;;;4986536;28;19926;-72
2023/06/25 15:41:43;;;;;;;;;;;;;;;;;;4987386;28;20397;-72
2023/06/25 15:44:29;;;;;;;;;;;;;;;;;;4980013;28;19918;-72
2023/06/25 15:47:16;;;;;;;;;;;;;;;;;;4979516;28;19965;-72
2023/06/25 15:50:03;;;;;;;;;;;;;;;;;;4978292;28;19929;-72
2023/06/25 15:52:50;;;;;;;;;;;;;;;;;;4975268;28;20027;-72
2023/06/25 15:55:36;;;;;;;;;;;;;;;;;;4982352;28;19917;-72
2023/06/25 15:58:23;;;;;;;;;;;;;;;;;;4981110;28;20300;-72
2023/06/25 16:01:09;;;;;;;;;;;;;;;;;;4974143;28;19920;-74
2023/06/25 16:03:56;;;;;;;;;;;;;;;;;;4982564;28;19918;-71
2023/06/25 16:06:42;;;;;;;;;;;;;;;;;;4975348;28;19921;-73
2023/06/25 16:09:29;;;;;;;;;;;;;;;;;;4980108;28;19917;-73
2023/06/25 16:12:15;;;;;;;;;;;;;;;;;;4996350;28;19925;-71
2023/06/25 16:15:03;;;;;;;;;;;;;;;;;;4988269;28;20301;-70
2023/06/25 16:17:50;;;;;;;;;;;;;;;;;;4990866;28;19936;-70
2023/06/25 16:20:36;;;;;;;;;;;;;;;;;;4982329;28;20369;-70
2023/06/25 16:23:23;;;;;;;;;;;;;;;;;;4987047;28;19922;-69
2023/06/25 16:26:09;;;;;;;;;;;;;;;;;;4992723;28;19935;-70
2023/06/25 16:28:56;;;;;;;;;;;;;;;;;;5000860;28;19952;-71
2023/06/25 16:31:44;;;;;;;;;;;;;;;;;;5002286;28;20207;-71
2023/06/25 16:34:30;;;;;;;;;;;;;;;;;;4994858;28;19921;-71
2023/06/25 16:37:17;;;;;;;;;;;;;;;;;;5008694;28;19925;-72
2023/06/25 16:40:04;;;;;;;;;;;;;;;;;;4995829;28;19968;-70
2023/06/25 16:42:50;;;;;;;;;;;;;;;;;;5002272;28;19927;-72
2023/06/25 16:45:37;;;;;;;;;;;;;;;;;;5000467;28;19921;-71
2023/06/25 16:48:23;;;;;;;;;;;;;;;;;;5003806;28;19922;-71
2023/06/25 16:51:10;;;;;;;;;;;;;;;;;;4986414;28;19922;-70
2023/06/25 16:53:56;;;;;;;;;;;;;;;;;;4999502;28;19929;-70
2023/06/25 16:56:43;;;;;;;;;;;;;;;;;;5001841;28;19924;-70
2023/06/25 16:59:29;;;;;;;;;;;;;;;;;;5003688;28;19928;-70
2023/06/25 17:02:16;;;;;;;;;;;;;;;;;;5001280;28;19921;-71
2023/06/25 17:05:02;;;;;;;;;;;;;;;;;;5002333;28;19924;-70
2023/06/25 17:07:49;;;;;;;;;;;;;;;;;;4999494;28;19921;-71
2023/06/25 17:10:35;;;;;;;;;;;;;;;;;;4993546;28;20146;-72
2023/06/25 17:13:22;;;;;;;;;;;;;;;;;;4999978;28;20743;-72
2023/06/25 17:16:08;;;;;;;;;;;;;;;;;;5004248;28;19921;-71
2023/06/25 17:18:56;;;;;;;;;;;;;;;;;;5002501;28;19929;-72
2023/06/25 17:21:42;;;;;;;;;;;;;;;;;;5001031;28;20298;-71
2023/06/25 17:24:29;;;;;;;;;;;;;;;;;;5000386;28;19929;-71
2023/06/25 17:27:15;;;;;;;;;;;;;;;;;;5000508;28;19933;-70
2023/06/25 17:30:02;;;;;;;;;;;;;;;;;;4999942;28;19921;-71
2023/06/25 17:32:48;;;;;;;;;;;;;;;;;;4999813;28;19927;-72
2023/06/25 17:35:35;;;;;;;;;;;;;;;;;;4997990;28;19928;-72
2023/06/25 17:38:21;;;;;;;;;;;;;;;;;;4997068;28;20392;-72
2023/06/25 17:41:08;;;;;;;;;;;;;;;;;;5001377;28;19921;-72
2023/06/25 17:43:54;;;;;;;;;;;;;;;;;;4999583;28;20404;-73
2023/06/25 17:46:43;;;;;;;;;;;;;;;;;;5001977;28;19922;-73
2023/06/25 17:49:30;;;;;;;;;;;;;;;;;;4998984;28;20502;-72
2023/06/25 17:52:17;;;;;;;;;;;;;;;;;;5002971;28;19924;-73
2023/06/25 17:55:03;;;;;;;;;;;;;;;;;;4999298;28;19948;-73
2023/06/25 17:57:50;;;;;;;;;;;;;;;;;;5004150;28;19937;-73
2023/06/25 18:00:36;;;;;;;;;;;;;;;;;;5001767;28;19921;-73
2023/06/25 18:03:23;;;;;;;;;;;;;;;;;;5003054;28;19921;-72
2023/06/25 18:06:09;;;;;;;;;;;;;;;;;;5002237;28;19941;-72
2023/06/25 18:08:56;;;;;;;;;;;;;;;;;;5000234;28;19929;-72
2023/06/25 18:11:42;;;;;;;;;;;;;;;;;;5001229;28;20440;-73
2023/06/25 18:14:29;;;;;;;;;;;;;;;;;;4998153;28;19921;-73
2023/06/25 18:17:15;;;;;;;;;;;;;;;;;;4998573;28;20355;-73
2023/06/25 18:20:03;;;;;;;;;;;;;;;;;;5002478;28;19921;-73
2023/06/25 18:22:50;;;;;;;;;;;;;;;;;;5000791;28;19921;-73
2023/06/25 18:25:37;;;;;;;;;;;;;;;;;;5004501;28;19921;-73
2023/06/25 18:28:23;;;;;;;;;;;;;;;;;;4998327;28;19948;-73
2023/06/25 18:31:10;;;;;;;;;;;;;;;;;;4998654;28;19914;-71
2023/06/25 18:33:56;;;;;;;;;;;;;;;;;;4998288;28;19932;-71
2023/06/25 18:36:46;;;;;;;;;;;;;;;;;;5000469;28;19924;-71
2023/06/25 18:39:32;;;;;;;;;;;;;;;;;;4999590;28;19930;-71
2023/06/25 18:42:19;;;;;;;;;;;;;;;;;;4998419;28;19924;-72
2023/06/25 18:45:05;;;;;;;;;;;;;;;;;;4998016;28;19921;-70
2023/06/25 18:47:52;;;;;;;;;;;;;;;;;;5002060;28;19922;-70
2023/06/25 18:50:39;;;;;;;;;;;;;;;;;;4996779;28;19921;-70
2023/06/25 18:53:26;;;;;;;;;;;;;;;;;;5000366;28;19937;-70
2023/06/25 18:56:12;;;;;;;;;;;;;;;;;;5000711;28;19925;-70